Time;durP1;ratioP1;P1;durP2;ratioP2;P2;SDS_P1;SDS_P2;PMS_P1;PMS_P2;Temp;Humidity;BMP_temperature;BMP_pressure;BME280_temperature;BME280_humidity;BME280_pressure;Samples;Min_cycle;Max_cycle;Signal;HPM_P1;HPM_P2
2022/12/08 00:01:23;;;;;;;1.60;0.68;;;28.80;37.80;;;;;;5009227;28;20036;-68
2022/12/08 00:03:51;;;;;;;3.90;0.40;;;29.00;35.70;;;;;;5011483;28;20058;-69
2022/12/08 00:09:35;;;;;;;0.40;0.30;;;29.30;34.00;;;;;;4990782;28;20041;-69
2022/12/08 00:12:05;;;;;;;2.33;0.68;;;29.10;35.30;;;;;;4990603;28;20384;-69
2022/12/08 00:14:39;;;;;;;0.25;0.13;;;29.20;32.50;;;;;;5002985;28;20386;-70
2022/12/08 00:17:06;;;;;;;;;;;29.10;34.00;;;;;;5009999;28;20063;-70
2022/12/08 00:19:34;;;;;;;1.02;0.17;;;29.50;33.40;;;;;;5012990;28;19983;-70
2022/12/08 00:22:02;;;;;;;2.92;0.47;;;29.80;35.20;;;;;;5009868;28;20483;-69
2022/12/08 00:24:34;;;;;;;1.10;0.20;;;29.60;32.40;;;;;;5009794;28;20038;-69
2022/12/08 00:27:02;;;;;;;0.38;0.15;;;29.80;34.40;;;;;;5009359;28;20032;-69
2022/12/08 00:29:29;;;;;;;0.63;0.20;;;30.00;35.00;;;;;;5008572;28;20030;-70
2022/12/08 00:31:56;;;;;;;0.98;0.20;;;30.10;34.60;;;;;;5010937;28;20026;-70
2022/12/08 00:34:24;;;;;;;1.80;0.30;;;30.30;33.10;;;;;;5014377;28;20069;-69
2022/12/08 00:36:51;;;;;;;2.22;0.30;;;29.90;32.60;;;;;;5022047;28;20026;-70
2022/12/08 00:39:19;;;;;;;0.52;0.20;;;29.80;33.90;;;;;;5015146;28;20026;-69
2022/12/08 00:44:31;;;;;;;1.33;0.10;;;29.40;32.60;;;;;;5007481;28;20080;-70
2022/12/08 00:46:58;;;;;;;0.50;0.17;;;29.50;34.70;;;;;;5013391;28;20507;-70
2022/12/08 00:49:26;;;;;;;1.10;0.40;;;29.80;36.60;;;;;;5003315;28;20022;-70
2022/12/08 00:51:53;;;;;;;1.52;0.40;;;30.20;34.10;;;;;;5017475;28;20392;-69
2022/12/08 00:54:21;;;;;;;0.55;0.20;;;30.40;31.30;;;;;;5011001;28;20038;-70
2022/12/08 00:56:49;;;;;;;0.70;0.20;;;30.30;34.00;;;;;;5014546;28;20116;-69
2022/12/08 00:59:16;;;;;;;0.80;0.45;;;29.90;32.30;;;;;;5018008;28;20478;-69
2022/12/08 01:01:45;;;;;;;4.85;0.40;;;29.70;32.60;;;;;;5009180;28;20033;-68
2022/12/08 01:04:17;;;;;;;0.68;0.10;;;29.30;32.90;;;;;;5008359;28;20464;-69
2022/12/08 01:06:45;;;;;;;0.40;0.10;;;29.00;32.10;;;;;;5012251;28;20034;-69
2022/12/08 01:09:14;;;;;;;2.80;0.35;;;29.10;33.70;;;;;;5016024;28;20034;-69
2022/12/08 01:11:43;;;;;;;1.60;0.50;;;29.30;33.30;;;;;;5010866;28;20025;-70
2022/12/08 01:14:10;;;;;;;1.67;0.20;;;29.70;33.90;;;;;;5012895;28;20034;-69
2022/12/08 01:16:40;;;;;;;2.03;0.32;;;29.80;32.00;;;;;;5011409;28;20114;-71
2022/12/08 01:19:08;;;;;;;2.00;0.40;;;29.70;30.10;;;;;;5020800;28;20127;-70
2022/12/08 01:21:36;;;;;;;1.35;0.20;;;29.40;30.60;;;;;;5023199;28;20025;-69
2022/12/08 01:24:03;;;;;;;1.80;0.15;;;29.30;31.70;;;;;;5018523;28;20026;-70
2022/12/08 01:26:30;;;;;;;7.45;1.25;;;29.40;30.00;;;;;;5012930;28;20030;-69
2022/12/08 01:28:58;;;;;;;6.18;0.30;;;29.50;32.20;;;;;;5022135;28;20372;-70
2022/12/08 01:31:25;;;;;;;6.55;0.45;;;29.50;30.00;;;;;;5018472;28;20026;-70
2022/12/08 01:33:52;;;;;;;0.55;0.30;;;29.40;31.10;;;;;;5020350;28;20033;-69
2022/12/08 01:36:22;;;;;;;0.75;0.20;;;29.30;31.20;;;;;;5010213;28;20050;-70
2022/12/08 01:38:50;;;;;;;1.55;0.17;;;29.30;30.00;;;;;;5020806;28;20036;-69
2022/12/08 01:41:21;;;;;;;0.85;0.20;;;29.50;31.70;;;;;;5014935;28;20013;-70
2022/12/08 01:43:56;;;;;;;1.33;0.20;;;29.50;31.20;;;;;;5024614;28;20037;-69
2022/12/08 01:46:25;;;;;;;0.68;0.25;;;29.60;32.60;;;;;;5013789;28;20040;-70
2022/12/08 01:49:14;;;;;;;4.90;0.40;;;30.00;33.70;;;;;;5009553;28;20040;-70
2022/12/08 01:52:05;;;;;;;1.17;0.20;;;29.90;31.50;;;;;;5001005;28;20410;-70
2022/12/08 01:54:35;;;;;;;0.47;0.20;;;30.20;31.70;;;;;;5007749;28;20024;-70
2022/12/08 01:57:14;;;;;;;0.98;0.20;;;30.60;31.60;;;;;;5009723;28;20457;-70
2022/12/08 01:59:47;;;;;;;3.30;0.28;;;30.80;32.70;;;;;;5000557;28;20581;-70
2022/12/08 02:02:14;;;;;;;1.80;0.20;;;31.00;31.50;;;;;;5013946;28;20527;-70
2022/12/08 02:04:41;;;;;;;0.20;0.20;;;31.00;28.80;;;;;;5025224;28;20395;-71
2022/12/08 02:07:11;;;;;;;2.53;0.40;;;30.80;30.00;;;;;;5018860;28;20021;-70
2022/12/08 02:09:41;;;;;;;3.20;0.43;;;30.60;29.10;;;;;;5016710;28;20017;-71
2022/12/08 02:12:09;;;;;;;1.90;0.93;;;30.30;29.80;;;;;;5012606;28;20431;-70
2022/12/08 02:14:36;;;;;;;2.15;0.30;;;30.30;29.30;;;;;;5009130;28;20769;-71
2022/12/08 02:17:12;;;;;;;0.43;0.10;;;30.50;30.60;;;;;;5011569;28;20113;-71
2022/12/08 02:20:03;;;;;;;1.10;0.20;;;30.80;29.90;;;;;;5009089;28;20036;-70
2022/12/08 02:22:54;;;;;;;0.20;0.13;;;30.50;28.50;;;;;;5012381;28;20104;-70
2022/12/08 02:25:28;;;;;;;0.60;0.20;;;30.10;29.50;;;;;;4996680;28;20029;-69
2022/12/08 02:28:23;;;;;;;5.85;1.13;;;30.20;28.50;;;;;;5010866;28;20068;-71
2022/12/08 02:31:08;;;;;;;0.32;0.17;;;29.80;28.60;;;;;;5013401;28;20548;-70
2022/12/08 02:33:38;;;;;;;2.83;1.02;;;29.60;27.30;;;;;;5002449;28;20470;-69
2022/12/08 02:36:51;;;;;;;7.90;1.85;;;29.40;35.30;;;;;;5003595;28;20065;-69
2022/12/08 02:39:44;;;;;;;10.65;1.52;;;27.90;43.30;;;;;;4990123;28;20026;-66
2022/12/08 02:42:36;;;;;;;9.00;1.35;;;27.20;44.60;;;;;;5008291;28;20372;-69
2022/12/08 02:45:16;;;;;;;8.75;2.28;;;26.70;44.40;;;;;;5010542;28;20136;-70
2022/12/08 02:47:44;;;;;;;5.50;1.55;;;26.10;48.10;;;;;;5009231;28;20041;-70
2022/12/08 02:50:12;;;;;;;11.40;1.88;;;25.80;46.20;;;;;;5008508;28;20055;-70
2022/12/08 02:52:47;;;;;;;10.57;1.23;;;25.90;48.40;;;;;;5009167;28;20036;-70
2022/12/08 02:55:33;;;;;;;14.07;1.60;;;25.50;50.00;;;;;;5010464;28;20025;-70
2022/12/08 02:58:12;;;;;;;12.18;2.03;;;25.40;48.50;;;;;;5015610;28;20030;-71
2022/12/08 03:01:00;;;;;;;14.25;2.00;;;25.30;49.40;;;;;;5006663;28;20030;-69
2022/12/08 03:04:06;;;;;;;12.30;1.73;;;24.70;51.50;;;;;;5012471;28;20053;-70
2022/12/08 03:07:05;;;;;;;8.10;1.60;;;24.30;50.30;;;;;;5007625;28;20037;-70
2022/12/08 03:09:53;;;;;;;9.82;2.00;;;23.90;51.20;;;;;;5004299;28;20057;-69
2022/12/08 03:12:35;;;;;;;9.13;1.58;;;23.70;53.40;;;;;;5004607;28;20055;-71
2022/12/08 03:15:08;;;;;;;9.90;1.98;;;24.00;51.70;;;;;;5005467;28;20026;-69
2022/12/08 03:17:38;;;;;;;7.93;1.90;;;24.00;52.00;;;;;;5010628;28;20514;-71
2022/12/08 03:20:11;;;;;;;13.15;1.77;;;24.00;50.90;;;;;;5018604;28;20081;-70
2022/12/08 03:22:43;;;;;;;14.20;2.33;;;24.00;51.30;;;;;;5014431;28;20502;-69
2022/12/08 03:25:15;;;;;;;11.23;1.73;;;24.10;51.30;;;;;;5022653;28;20459;-70
2022/12/08 03:27:43;;;;;;;4.78;1.52;;;24.00;52.30;;;;;;5006378;28;20025;-71
2022/12/08 03:30:10;;;;;;;16.42;3.45;;;24.20;52.70;;;;;;5006128;28;20029;-70
2022/12/08 03:32:49;;;;;;;13.18;2.10;;;24.30;52.20;;;;;;5008217;28;20018;-69
2022/12/08 03:35:19;;;;;;;10.00;1.60;;;23.80;52.00;;;;;;5002354;28;20037;-71
2022/12/08 03:37:46;;;;;;;9.30;1.55;;;23.50;52.00;;;;;;5011939;28;20050;-71
2022/12/08 03:40:19;;;;;;;5.43;1.50;;;23.70;53.30;;;;;;5009816;28;20038;-69
2022/12/08 03:42:46;;;;;;;9.70;2.08;;;23.70;52.00;;;;;;5006688;28;20908;-69
2022/12/08 03:45:13;;;;;;;16.80;1.73;;;24.00;51.60;;;;;;5003974;28;20034;-67
2022/12/08 03:47:40;;;;;;;9.30;1.50;;;23.80;51.30;;;;;;5006463;28;20030;-66
2022/12/08 03:50:08;;;;;;;11.57;1.40;;;23.60;51.70;;;;;;5007257;28;20513;-67
2022/12/08 03:52:35;;;;;;;6.95;1.25;;;23.40;51.60;;;;;;5006780;28;20113;-68
2022/12/08 03:55:02;;;;;;;8.55;1.30;;;23.60;52.10;;;;;;5008883;28;20391;-67
2022/12/08 03:57:30;;;;;;;7.45;1.73;;;23.90;51.60;;;;;;5014663;28;20071;-67
2022/12/08 03:59:57;;;;;;;6.82;1.52;;;23.50;51.80;;;;;;5008676;28;20109;-67
2022/12/08 04:02:24;;;;;;;11.77;1.70;;;23.10;53.00;;;;;;5019852;28;20025;-69
2022/12/08 04:04:51;;;;;;;9.38;1.85;;;22.90;52.40;;;;;;5022122;28;20478;-67
2022/12/08 04:07:18;;;;;;;8.35;2.00;;;23.10;52.70;;;;;;5010511;28;20062;-69
2022/12/08 04:09:46;;;;;;;11.93;1.40;;;23.30;52.80;;;;;;5018128;28;20430;-69
2022/12/08 04:12:13;;;;;;;8.77;1.58;;;23.50;52.40;;;;;;5008990;28;20029;-69
2022/12/08 04:14:40;;;;;;;6.25;1.40;;;23.40;52.30;;;;;;4999826;28;20034;-68
2022/12/08 04:17:07;;;;;;;12.48;2.13;;;23.10;52.30;;;;;;5008670;28;20022;-65
2022/12/08 04:19:34;;;;;;;7.65;1.90;;;22.70;53.10;;;;;;5008824;28;20530;-70
2022/12/08 04:22:02;;;;;;;7.40;1.35;;;23.10;53.40;;;;;;5009386;28;20467;-69
2022/12/08 04:24:29;;;;;;;6.57;1.25;;;23.20;52.30;;;;;;5019217;28;20041;-68
2022/12/08 04:26:56;;;;;;;8.65;1.30;;;23.00;53.40;;;;;;5016297;28;20038;-68
2022/12/08 04:29:23;;;;;;;6.70;1.55;;;22.90;53.80;;;;;;5008797;28;20029;-69
2022/12/08 04:31:50;;;;;;;7.18;1.30;;;22.70;54.50;;;;;;5001190;28;20049;-69
2022/12/08 04:34:18;;;;;;;8.60;1.27;;;22.80;53.10;;;;;;5002480;28;20099;-71
2022/12/08 04:36:45;;;;;;;9.75;1.08;;;22.80;53.40;;;;;;5002841;28;20092;-67
2022/12/08 04:39:12;;;;;;;8.95;1.45;;;22.70;53.10;;;;;;5005017;28;20029;-70
2022/12/08 04:41:39;;;;;;;7.78;1.17;;;22.80;52.00;;;;;;4997459;28;20030;-70
2022/12/08 04:44:06;;;;;;;6.93;1.05;;;22.40;52.60;;;;;;5005382;28;20525;-69
2022/12/08 04:46:34;;;;;;;5.32;1.15;;;22.60;52.90;;;;;;5007648;28;20037;-70
2022/12/08 04:49:01;;;;;;;3.95;0.95;;;22.50;52.10;;;;;;5004956;28;20032;-69
2022/12/08 04:51:28;;;;;;;7.65;1.30;;;22.60;51.80;;;;;;5009658;28;20080;-69
2022/12/08 04:53:55;;;;;;;7.78;1.58;;;22.40;52.30;;;;;;5005930;28;20863;-69
2022/12/08 04:56:22;;;;;;;10.70;1.45;;;22.20;52.10;;;;;;5003925;28;20109;-69
2022/12/08 04:58:50;;;;;;;9.02;1.20;;;22.30;52.30;;;;;;5008338;28;20029;-70
2022/12/08 05:01:17;;;;;;;5.57;1.00;;;22.20;51.80;;;;;;5004993;28;20022;-69
2022/12/08 05:03:44;;;;;;;8.90;2.20;;;22.60;52.80;;;;;;5003025;28;20030;-68
2022/12/08 05:06:15;;;;;;;7.50;1.23;;;22.90;50.30;;;;;;5002568;28;20161;-68
2022/12/08 05:08:42;;;;;;;6.95;0.77;;;22.80;51.00;;;;;;5004600;28;20030;-69
2022/12/08 05:11:11;;;;;;;10.52;1.63;;;22.70;51.00;;;;;;5009935;28;20580;-68
2022/12/08 05:13:38;;;;;;;5.47;1.25;;;22.60;51.30;;;;;;5017774;28;20353;-69
2022/12/08 05:16:11;;;;;;;5.90;1.25;;;22.70;51.50;;;;;;5008871;28;20033;-64
2022/12/08 05:18:40;;;;;;;8.88;1.83;;;22.60;50.40;;;;;;5008088;28;20030;-64
2022/12/08 05:21:10;;;;;;;8.90;1.42;;;22.80;51.20;;;;;;5010353;28;20080;-65
2022/12/08 05:23:37;;;;;;;5.43;1.10;;;22.60;50.60;;;;;;5001999;28;20445;-67
2022/12/08 05:26:05;;;;;;;5.47;0.93;;;22.30;51.50;;;;;;5004682;28;20030;-65
2022/12/08 05:28:33;;;;;;;8.30;1.60;;;22.30;50.40;;;;;;5000386;28;20024;-66
2022/12/08 05:31:00;;;;;;;10.35;1.35;;;22.70;50.40;;;;;;5000503;28;20084;-65
2022/12/08 05:33:27;;;;;;;3.42;0.80;;;22.20;50.10;;;;;;5001933;28;20116;-67
2022/12/08 05:35:54;;;;;;;7.55;1.33;;;21.90;50.70;;;;;;5007554;28;20042;-66
2022/12/08 05:38:22;;;;;;;5.40;0.88;;;21.90;51.00;;;;;;4999068;28;20025;-65
2022/12/08 05:40:49;;;;;;;5.85;0.77;;;22.00;51.80;;;;;;5004720;28;20034;-66
2022/12/08 05:43:16;;;;;;;6.00;1.35;;;22.10;50.60;;;;;;5006769;28;20073;-63
2022/12/08 05:45:44;;;;;;;15.90;1.63;;;22.10;50.60;;;;;;5017168;28;20471;-64
2022/12/08 05:48:11;;;;;;;7.63;1.10;;;22.20;50.80;;;;;;5004330;28;20096;-65
2022/12/08 05:50:39;;;;;;;5.25;0.82;;;22.30;50.30;;;;;;5005122;28;20045;-66
2022/12/08 05:53:06;;;;;;;5.75;1.23;;;22.40;49.70;;;;;;5016537;28;20026;-64
2022/12/08 05:55:33;;;;;;;8.68;1.48;;;22.60;49.10;;;;;;5015493;28;20048;-63
2022/12/08 05:58:00;;;;;;;5.32;0.90;;;22.30;50.00;;;;;;5013223;28;20025;-63
2022/12/08 06:00:27;;;;;;;4.60;0.73;;;22.30;50.10;;;;;;5013440;28;20080;-64
2022/12/08 06:02:55;;;;;;;6.63;1.17;;;22.50;50.10;;;;;;5016980;28;20034;-64
2022/12/08 06:05:22;;;;;;;4.10;1.33;;;22.80;50.20;;;;;;5018134;28;20068;-64
2022/12/08 06:07:49;;;;;;;5.22;0.85;;;22.60;49.60;;;;;;5019451;28;20494;-66
2022/12/08 06:10:17;;;;;;;4.93;0.88;;;22.80;49.90;;;;;;5009522;28;20033;-64
2022/12/08 06:12:44;;;;;;;5.10;1.30;;;22.80;49.70;;;;;;5014383;28;20037;-64
2022/12/08 06:15:11;;;;;;;6.03;1.02;;;22.80;49.10;;;;;;5014972;28;20034;-65
2022/12/08 06:17:38;;;;;;;7.45;1.00;;;22.90;49.30;;;;;;5013482;28;20092;-64
2022/12/08 06:20:06;;;;;;;4.78;0.90;;;22.70;49.10;;;;;;5019529;28;20033;-64
2022/12/08 06:22:34;;;;;;;3.92;1.00;;;22.80;50.20;;;;;;5008424;28;20110;-63
2022/12/08 06:25:01;;;;;;;4.93;1.00;;;23.00;49.30;;;;;;5015424;28;20568;-62
2022/12/08 06:27:28;;;;;;;3.78;1.35;;;22.70;49.60;;;;;;5012464;28;20109;-63
2022/12/08 06:29:56;;;;;;;7.45;1.25;;;22.70;49.80;;;;;;5018719;28;20049;-62
2022/12/08 06:32:23;;;;;;;9.68;1.17;;;22.50;50.30;;;;;;5014978;28;20026;-65
2022/12/08 06:34:50;;;;;;;8.35;1.55;;;22.30;51.00;;;;;;5008915;28;20137;-65
2022/12/08 06:37:18;;;;;;;10.10;1.50;;;22.20;51.00;;;;;;5017756;28;20014;-64
2022/12/08 06:39:45;;;;;;;5.28;0.90;;;21.80;52.00;;;;;;5019337;28;20121;-65
2022/12/08 06:44:58;;;;;;;7.35;1.15;;;21.80;52.20;;;;;;5010106;28;20131;-64
2022/12/08 06:47:25;;;;;;;4.82;0.82;;;21.70;52.40;;;;;;5007015;28;20018;-65
2022/12/08 06:49:52;;;;;;;5.57;0.80;;;21.70;52.60;;;;;;4995307;28;20026;-62
2022/12/08 06:52:20;;;;;;;8.95;1.00;;;21.30;51.80;;;;;;4990329;28;20019;-63
2022/12/08 06:54:47;;;;;;;3.03;0.70;;;21.00;53.40;;;;;;5005042;28;20559;-61
2022/12/08 06:57:14;;;;;;;5.07;1.10;;;21.00;52.70;;;;;;5009968;28;20402;-63
2022/12/08 06:59:41;;;;;;;7.60;1.10;;;20.90;53.20;;;;;;5010007;28;20121;-63
2022/12/08 07:02:10;;;;;;;5.30;1.38;;;20.70;53.90;;;;;;5000937;28;20470;-64
2022/12/08 07:04:37;;;;;;;8.07;1.27;;;21.00;54.20;;;;;;4989279;28;20030;-63
2022/12/08 07:07:04;;;;;;;7.43;1.15;;;21.20;52.90;;;;;;4989245;28;20026;-64
2022/12/08 07:09:32;;;;;;;4.20;0.80;;;21.10;53.10;;;;;;4989358;28;20029;-64
2022/12/08 07:11:59;;;;;;;4.13;1.88;;;21.30;52.50;;;;;;5007634;28;20084;-64
2022/12/08 07:14:26;;;;;;;4.80;1.27;;;21.20;52.70;;;;;;5008560;28;20401;-63
2022/12/08 07:16:53;;;;;;;5.10;1.05;;;20.90;52.50;;;;;;5008223;28;20022;-64
2022/12/08 07:19:21;;;;;;;5.47;0.88;;;20.80;53.50;;;;;;5007567;28;20116;-65
2022/12/08 07:21:48;;;;;;;6.50;1.17;;;20.50;53.40;;;;;;5009208;28;20471;-63
2022/12/08 07:24:15;;;;;;;7.60;1.98;;;20.40;54.10;;;;;;5010986;28;20622;-63
2022/12/08 07:26:42;;;;;;;4.32;0.80;;;20.40;53.10;;;;;;5010636;28;20048;-70
2022/12/08 07:29:10;;;;;;;6.05;1.25;;;20.40;54.10;;;;;;5010656;28;20108;-71
2022/12/08 07:31:37;;;;;;;9.85;1.70;;;20.50;53.90;;;;;;5010786;28;20026;-72
2022/12/08 07:34:04;;;;;;;5.88;0.85;;;20.50;53.60;;;;;;5010085;28;20029;-71
2022/12/08 07:36:32;;;;;;;3.28;1.77;;;20.70;53.20;;;;;;5010722;28;20026;-73
2022/12/08 07:38:59;;;;;;;4.82;1.00;;;20.80;53.00;;;;;;5010737;28;20114;-72
2022/12/08 07:41:26;;;;;;;4.68;0.95;;;20.50;52.90;;;;;;5009969;28;20033;-72
2022/12/08 07:43:55;;;;;;;6.20;0.85;;;20.30;53.90;;;;;;5009851;28;20105;-71
2022/12/08 07:46:24;;;;;;;8.15;1.67;;;20.00;53.70;;;;;;5008547;28;20040;-73
2022/12/08 07:48:53;;;;;;;5.55;0.93;;;19.80;54.40;;;;;;5008967;28;20030;-70
2022/12/08 07:51:20;;;;;;;2.60;1.08;;;19.60;54.40;;;;;;5009118;28;20105;-71
2022/12/08 07:53:51;;;;;;;4.32;0.98;;;19.40;55.00;;;;;;5008735;28;20030;-72
2022/12/08 07:56:18;;;;;;;4.80;0.93;;;19.30;55.00;;;;;;5008582;28;20030;-72
2022/12/08 07:58:46;;;;;;;4.57;0.70;;;19.20;55.20;;;;;;5008921;28;20524;-72
2022/12/08 08:01:24;;;;;;;6.35;1.05;;;19.10;55.70;;;;;;5010382;28;20534;-71
2022/12/08 08:03:51;;;;;;;8.30;0.90;;;19.10;55.70;;;;;;5010821;28;20080;-72
2022/12/08 08:06:19;;;;;;;5.85;1.00;;;19.10;56.30;;;;;;5010546;28;20041;-72
2022/12/08 08:08:46;;;;;;;8.23;0.90;;;19.00;56.60;;;;;;5010071;28;20393;-72
2022/12/08 08:11:13;;;;;;;10.77;1.10;;;18.90;57.30;;;;;;5009415;28;20276;-71
2022/12/08 08:13:41;;;;;;;4.80;1.23;;;18.80;58.00;;;;;;5009766;28;20029;-71
2022/12/08 08:16:12;;;;;;;5.53;1.10;;;18.70;58.00;;;;;;5009907;28;20048;-72
2022/12/08 08:18:40;;;;;;;1.63;0.60;;;18.60;58.20;;;;;;5010141;28;20022;-71
2022/12/08 08:21:07;;;;;;;3.92;0.88;;;18.50;58.20;;;;;;5009701;28;20034;-72
2022/12/08 08:23:35;;;;;;;6.50;0.85;;;18.40;58.10;;;;;;5009652;28;20029;-71
2022/12/08 08:26:03;;;;;;;4.75;0.90;;;18.30;58.30;;;;;;5009614;28;20117;-71
2022/12/08 08:28:31;;;;;;;6.90;0.90;;;18.30;58.10;;;;;;5009928;28;20034;-72
2022/12/08 08:30:59;;;;;;;8.27;1.10;;;18.20;57.70;;;;;;5008732;28;20025;-72
2022/12/08 08:33:26;;;;;;;4.63;0.80;;;18.10;57.80;;;;;;5009754;28;21573;-72
2022/12/08 08:35:57;;;;;;;2.95;0.70;;;18.00;58.70;;;;;;5009789;28;20104;-72
2022/12/08 08:38:24;;;;;;;5.10;1.00;;;17.90;58.40;;;;;;5009801;28;20108;-72
2022/12/08 08:40:51;;;;;;;5.88;0.90;;;17.90;58.60;;;;;;5009853;28;20014;-70
2022/12/08 08:43:28;;;;;;;3.85;1.23;;;17.70;58.60;;;;;;5009998;28;20052;-71
2022/12/08 08:45:59;;;;;;;6.60;0.88;;;17.70;59.00;;;;;;5009182;28;20038;-71
2022/12/08 08:48:28;;;;;;;3.22;0.80;;;17.70;59.40;;;;;;5009642;28;20018;-71
2022/12/08 08:50:55;;;;;;;8.63;1.65;;;17.60;59.30;;;;;;5009632;28;20076;-71
2022/12/08 08:53:23;;;;;;;4.40;0.93;;;17.50;59.10;;;;;;5009269;28;20033;-71
2022/12/08 08:55:51;;;;;;;7.05;1.13;;;17.50;58.90;;;;;;5009399;28;20026;-72
2022/12/08 08:58:18;;;;;;;2.20;0.50;;;17.50;59.00;;;;;;5009803;28;20130;-71
2022/12/08 09:00:45;;;;;;;4.45;0.80;;;17.40;59.30;;;;;;5009574;28;20071;-71
2022/12/08 09:03:13;;;;;;;5.20;0.90;;;17.30;59.90;;;;;;5009107;28;20172;-70
2022/12/08 09:05:40;;;;;;;7.13;0.70;;;17.20;60.50;;;;;;5007868;28;20127;-70
2022/12/08 09:08:08;;;;;;;6.53;0.98;;;17.10;60.70;;;;;;5009237;28;20022;-71
2022/12/08 09:10:35;;;;;;;4.60;1.60;;;17.00;61.60;;;;;;5009067;28;20057;-70
2022/12/08 09:13:02;;;;;;;4.35;1.00;;;17.00;62.00;;;;;;5008799;28;20026;-71
2022/12/08 09:15:29;;;;;;;8.00;1.02;;;16.90;62.60;;;;;;5009308;28;20494;-71
2022/12/08 09:17:56;;;;;;;2.42;0.88;;;16.80;62.90;;;;;;5009268;28;20014;-72
2022/12/08 09:20:24;;;;;;;5.35;1.92;;;16.80;63.30;;;;;;5009227;28;20053;-71
2022/12/08 09:22:51;;;;;;;3.47;0.75;;;16.60;63.20;;;;;;5012095;28;20026;-70
2022/12/08 09:25:18;;;;;;;6.57;0.80;;;16.60;63.40;;;;;;5012817;28;20038;-71
2022/12/08 09:27:46;;;;;;;8.90;1.13;;;16.60;63.50;;;;;;5013176;28;20479;-72
2022/12/08 09:30:13;;;;;;;4.85;1.48;;;16.60;63.00;;;;;;5013104;28;20018;-71
2022/12/08 09:32:40;;;;;;;2.63;0.68;;;16.50;63.20;;;;;;5011980;28;20057;-71
2022/12/08 09:35:08;;;;;;;8.63;1.00;;;16.50;63.30;;;;;;5012250;28;20034;-71
2022/12/08 09:37:35;;;;;;;4.72;1.10;;;16.50;63.70;;;;;;5012495;28;20026;-68
2022/12/08 09:40:05;;;;;;;7.80;1.20;;;16.40;63.70;;;;;;5011467;28;20026;-70
2022/12/08 09:42:52;;;;;;;6.97;0.90;;;16.50;64.00;;;;;;5011916;28;20681;-70
2022/12/08 09:45:22;;;;;;;3.65;0.90;;;16.60;64.00;;;;;;5012550;28;20479;-71
2022/12/08 09:48:23;;;;;;;8.10;0.88;;;16.70;64.00;;;;;;5012970;28;20108;-69
2022/12/08 09:50:54;;;;;;;6.22;0.52;;;16.70;64.20;;;;;;4994771;28;20041;-69
2022/12/08 09:53:27;;;;;;;5.05;1.75;;;16.80;64.60;;;;;;5012161;28;20025;-68
2022/12/08 09:56:08;;;;;;;7.00;1.05;;;16.80;64.10;;;;;;5012464;28;20398;-69
2022/12/08 09:58:57;;;;;;;3.33;0.85;;;16.90;65.00;;;;;;5011975;28;20034;-69
2022/12/08 10:01:32;;;;;;;7.18;1.25;;;16.90;64.80;;;;;;5003697;28;20026;-69
2022/12/08 10:04:00;;;;;;;8.65;1.23;;;17.00;65.20;;;;;;5012761;28;20541;-70
2022/12/08 10:06:47;;;;;;;2.55;0.88;;;17.00;64.80;;;;;;5011104;28;20041;-71
2022/12/08 10:09:46;;;;;;;5.57;0.90;;;17.00;65.20;;;;;;5011946;28;20034;-71
2022/12/08 10:12:21;;;;;;;7.68;0.70;;;17.00;65.60;;;;;;5011814;28;20057;-69
2022/12/08 10:14:54;;;;;;;5.05;1.42;;;17.10;65.90;;;;;;5012269;28;20026;-69
2022/12/08 10:17:29;;;;;;;8.02;1.23;;;17.10;66.70;;;;;;5011997;28;20026;-68
2022/12/08 10:20:06;;;;;;;5.45;1.17;;;17.10;66.50;;;;;;5010474;28;20029;-71
2022/12/08 10:22:35;;;;;;;5.15;0.90;;;17.10;66.50;;;;;;5011332;28;20036;-71
2022/12/08 10:25:27;;;;;;;4.47;0.90;;;17.10;66.60;;;;;;5010886;28;20060;-70
2022/12/08 10:27:55;;;;;;;6.07;1.08;;;17.10;66.60;;;;;;5011793;28;20395;-69
2022/12/08 10:30:22;;;;;;;6.75;0.85;;;17.20;66.50;;;;;;5011497;28;20481;-69
2022/12/08 10:32:52;;;;;;;4.43;0.68;;;17.20;67.00;;;;;;5014321;28;20049;-70
2022/12/08 10:35:21;;;;;;;7.55;1.40;;;17.20;67.10;;;;;;5018101;28;20080;-69
2022/12/08 10:38:05;;;;;;;7.07;1.20;;;17.10;67.10;;;;;;5020975;28;20029;-70
2022/12/08 10:40:36;;;;;;;8.73;2.00;;;17.10;67.30;;;;;;5004398;28;20037;-70
2022/12/08 10:43:05;;;;;;;6.45;1.10;;;17.20;67.10;;;;;;5011393;28;20097;-69
2022/12/08 10:45:42;;;;;;;6.57;1.00;;;17.10;67.80;;;;;;4990749;28;20530;-70
2022/12/08 10:48:30;;;;;;;8.77;1.27;;;17.10;67.60;;;;;;4992078;28;20029;-69
2022/12/08 10:51:04;;;;;;;5.30;1.05;;;17.10;67.00;;;;;;5009243;28;20439;-71
2022/12/08 10:53:43;;;;;;;7.40;1.13;;;17.10;66.50;;;;;;5009653;28;20108;-72
2022/12/08 10:56:17;;;;;;;6.93;0.98;;;17.10;66.60;;;;;;5010826;28;20120;-71
2022/12/08 10:58:46;;;;;;;8.30;1.27;;;17.10;66.80;;;;;;5008783;28;20026;-70
2022/12/08 11:01:32;;;;;;;7.50;1.17;;;17.10;67.50;;;;;;5010685;28;20033;-69
2022/12/08 11:04:05;;;;;;;3.40;0.80;;;17.10;67.00;;;;;;4997720;28;20057;-69
2022/12/08 11:06:36;;;;;;;7.93;1.83;;;17.00;67.30;;;;;;5009842;28;20042;-69
2022/12/08 11:09:15;;;;;;;4.05;1.08;;;17.00;67.40;;;;;;5010195;28;20026;-69
2022/12/08 11:11:51;;;;;;;6.05;1.23;;;17.00;67.80;;;;;;5008620;28;20021;-69
2022/12/08 11:14:27;;;;;;;4.47;1.90;;;17.00;67.80;;;;;;5010819;28;20408;-70
2022/12/08 11:17:08;;;;;;;4.90;0.88;;;17.00;68.20;;;;;;5010965;28;20044;-69
2022/12/08 11:19:44;;;;;;;6.43;1.35;;;16.90;68.40;;;;;;5011198;28;20029;-70
2022/12/08 11:22:32;;;;;;;5.60;1.00;;;16.90;68.90;;;;;;5011157;28;20022;-71
2022/12/08 11:25:11;;;;;;;4.82;1.00;;;16.90;69.10;;;;;;5010792;28;20042;-72
2022/12/08 11:27:45;;;;;;;4.35;1.20;;;16.90;69.20;;;;;;5009872;28;20030;-69
2022/12/08 11:30:24;;;;;;;6.57;1.05;;;16.80;69.80;;;;;;5010494;28;20033;-69
2022/12/08 11:32:56;;;;;;;8.85;1.65;;;16.80;70.00;;;;;;5011583;28;20034;-70
2022/12/08 11:35:34;;;;;;;3.85;1.05;;;16.80;69.80;;;;;;5009726;28;20131;-69
2022/12/08 11:38:22;;;;;;;9.05;1.50;;;16.70;70.50;;;;;;5010216;28;20026;-70
2022/12/08 11:41:10;;;;;;;6.55;1.38;;;16.70;70.40;;;;;;5010496;28;20168;-70
2022/12/08 11:43:41;;;;;;;6.13;1.27;;;16.70;70.40;;;;;;5010507;28;20423;-70
2022/12/08 11:46:20;;;;;;;4.40;1.10;;;16.70;70.90;;;;;;5010224;28;20033;-69
2022/12/08 11:48:53;;;;;;;4.90;1.13;;;16.70;70.70;;;;;;5010611;28;20486;-70
2022/12/08 11:51:34;;;;;;;2.40;0.70;;;16.70;71.20;;;;;;5010906;28;20064;-68
2022/12/08 11:54:12;;;;;;;4.55;1.08;;;16.60;71.70;;;;;;5009954;28;20030;-69
2022/12/08 11:56:47;;;;;;;7.28;1.30;;;16.60;72.00;;;;;;5009947;28;20080;-69
2022/12/08 11:59:17;;;;;;;13.85;1.58;;;16.60;72.60;;;;;;4996173;28;20138;-69
2022/12/08 12:01:44;;;;;;;10.93;2.40;;;16.60;72.40;;;;;;5010079;28;20033;-69
2022/12/08 12:04:41;;;;;;;6.25;1.35;;;16.50;73.20;;;;;;5009691;28;20407;-69
2022/12/08 12:07:11;;;;;;;4.40;1.38;;;16.40;73.70;;;;;;5009582;28;20034;-68
2022/12/08 12:09:44;;;;;;;3.25;0.98;;;16.40;74.40;;;;;;5008602;28;20022;-68
2022/12/08 12:12:33;;;;;;;8.63;1.42;;;16.40;75.10;;;;;;5009549;28;20112;-68
2022/12/08 12:15:12;;;;;;;10.27;1.75;;;16.30;74.70;;;;;;5008355;28;20030;-70
2022/12/08 12:17:52;;;;;;;8.80;1.98;;;16.30;75.60;;;;;;5009036;28;20021;-71
2022/12/08 12:20:35;;;;;;;3.47;0.93;;;16.20;76.10;;;;;;5009551;28;20030;-70
2022/12/08 12:23:21;;;;;;;4.95;1.38;;;16.20;76.10;;;;;;5005060;28;20565;-69
2022/12/08 12:25:58;;;;;;;6.60;1.70;;;16.20;76.40;;;;;;5009065;28;20038;-69
2022/12/08 12:28:32;;;;;;;7.40;1.20;;;16.10;76.30;;;;;;5008982;28;20045;-69
2022/12/08 12:31:07;;;;;;;7.78;1.10;;;16.10;76.70;;;;;;5009213;28;20040;-68
2022/12/08 12:33:35;;;;;;;8.50;0.77;;;16.00;77.20;;;;;;5005993;28;20065;-70
2022/12/08 12:36:06;;;;;;;5.05;0.77;;;16.00;77.50;;;;;;5004505;28;20507;-70
2022/12/08 12:39:02;;;;;;;6.05;0.80;;;16.00;77.60;;;;;;5007576;28;20034;-70
2022/12/08 12:41:44;;;;;;;6.88;1.08;;;15.90;78.30;;;;;;5005114;28;20058;-68
2022/12/08 12:44:18;;;;;;;9.57;1.73;;;15.80;78.30;;;;;;4997417;28;20111;-70
2022/12/08 12:46:48;;;;;;;6.50;1.05;;;15.80;79.00;;;;;;5015992;28;20049;-70
2022/12/08 12:49:42;;;;;;;7.28;1.77;;;15.70;78.90;;;;;;5014838;28;20391;-69
2022/12/08 12:52:16;;;;;;;8.13;1.02;;;15.70;79.20;;;;;;5015333;28;20026;-69
2022/12/08 12:54:45;;;;;;;8.30;1.52;;;15.70;79.20;;;;;;5021533;28;20021;-70
2022/12/08 12:57:12;;;;;;;3.60;1.00;;;15.80;79.30;;;;;;5017970;28;20063;-70
2022/12/08 12:59:46;;;;;;;8.77;1.13;;;15.80;79.80;;;;;;5020983;28;20029;-70
2022/12/08 13:02:22;;;;;;;7.80;1.10;;;15.80;79.90;;;;;;5006545;28;20374;-70
2022/12/08 13:05:12;;;;;;;7.53;1.42;;;15.80;80.00;;;;;;5024104;28;20133;-69
2022/12/08 13:07:58;;;;;;;6.45;1.42;;;15.80;80.00;;;;;;5002874;28;20045;-70
2022/12/08 13:10:28;;;;;;;5.68;1.02;;;15.90;80.00;;;;;;5007701;28;20030;-70
2022/12/08 13:13:16;;;;;;;4.03;0.98;;;15.90;79.80;;;;;;5019710;28;20026;-70
2022/12/08 13:15:54;;;;;;;6.05;1.20;;;15.90;80.00;;;;;;5012828;28;20156;-69
2022/12/08 13:18:38;;;;;;;9.15;1.40;;;15.90;80.10;;;;;;5011909;28;20507;-69